sensor_id;sensor_type;location;lat;lon;timestamp;pressure;altitude;pressure_sealevel;temperature;humidity
19005;BME280;9635;52.078;8.648;2023-07-20T00:02:24;100128.75;;;17.15;65.72
19005;BME280;9635;52.078;8.648;2023-07-20T00:07:46;100124.50;;;17.20;65.58
19005;BME280;9635;52.078;8.648;2023-07-20T00:12:49;100112.41;;;17.31;65.84
19005;BME280;9635;52.078;8.648;2023-07-20T00:17:53;100117.31;;;17.36;65.58
19005;BME280;9635;52.078;8.648;2023-07-20T00:22:56;100108.72;;;17.08;65.13
19005;BME280;9635;52.078;8.648;2023-07-20T00:28:00;100124.88;;;16.85;65.80
19005;BME280;9635;52.078;8.648;2023-07-20T00:33:04;100119.97;;;16.64;66.50
19005;BME280;9635;52.078;8.648;2023-07-20T00:38:07;100124.06;;;16.51;67.13
19005;BME280;9635;52.078;8.648;2023-07-20T00:43:10;100112.34;;;16.59;66.92
19005;BME280;9635;52.078;8.648;2023-07-20T00:48:15;100114.06;;;16.44;67.31
19005;BME280;9635;52.078;8.648;2023-07-20T00:53:18;100116.38;;;16.22;67.80
19005;BME280;9635;52.078;8.648;2023-07-20T00:58:22;100106.88;;;16.10;68.09
19005;BME280;9635;52.078;8.648;2023-07-20T01:03:27;100107.88;;;16.09;67.82
19005;BME280;9635;52.078;8.648;2023-07-20T01:08:36;100112.31;;;16.18;67.84
19005;BME280;9635;52.078;8.648;2023-07-20T01:13:42;100110.59;;;16.25;67.55
19005;BME280;9635;52.078;8.648;2023-07-20T01:18:47;100102.19;;;16.36;67.39
19005;BME280;9635;52.078;8.648;2023-07-20T01:24:05;100104.38;;;16.49;67.36
19005;BME280;9635;52.078;8.648;2023-07-20T01:29:26;100110.31;;;16.36;66.63
19005;BME280;9635;52.078;8.648;2023-07-20T01:34:36;100102.47;;;16.17;67.80
19005;BME280;9635;52.078;8.648;2023-07-20T01:39:41;100106.38;;;16.23;68.58
19005;BME280;9635;52.078;8.648;2023-07-20T01:44:44;100097.22;;;15.99;69.87
19005;BME280;9635;52.078;8.648;2023-07-20T01:49:48;100091.97;;;16.22;69.49
19005;BME280;9635;52.078;8.648;2023-07-20T01:54:51;100095.88;;;16.20;69.79
19005;BME280;9635;52.078;8.648;2023-07-20T01:59:53;100087.94;;;16.18;69.49
19005;BME280;9635;52.078;8.648;2023-07-20T02:04:58;100086.72;;;16.12;71.45
19005;BME280;9635;52.078;8.648;2023-07-20T02:10:01;100088.41;;;16.05;73.62
19005;BME280;9635;52.078;8.648;2023-07-20T02:15:05;100091.09;;;15.97;74.66
19005;BME280;9635;52.078;8.648;2023-07-20T02:20:11;100094.81;;;16.04;74.70
19005;BME280;9635;52.078;8.648;2023-07-20T02:25:14;100099.72;;;15.92;75.83
19005;BME280;9635;52.078;8.648;2023-07-20T02:30:17;100093.94;;;15.87;76.33
19005;BME280;9635;52.078;8.648;2023-07-20T02:35:21;100092.25;;;15.86;76.05
19005;BME280;9635;52.078;8.648;2023-07-20T02:40:24;100082.50;;;16.02;76.32
19005;BME280;9635;52.078;8.648;2023-07-20T02:45:27;100086.03;;;15.94;76.86
19005;BME280;9635;52.078;8.648;2023-07-20T02:50:31;100085.31;;;15.84;77.58
19005;BME280;9635;52.078;8.648;2023-07-20T02:55:34;100096.91;;;15.60;78.90
19005;BME280;9635;52.078;8.648;2023-07-20T03:00:36;100101.25;;;15.95;77.92
19005;BME280;9635;52.078;8.648;2023-07-20T03:05:41;100106.06;;;16.26;76.90
19005;BME280;9635;52.078;8.648;2023-07-20T03:10:44;100101.50;;;16.34;75.62
19005;BME280;9635;52.078;8.648;2023-07-20T03:15:47;100112.03;;;16.38;75.17
19005;BME280;9635;52.078;8.648;2023-07-20T03:20:52;100115.34;;;16.23;72.88
19005;BME280;9635;52.078;8.648;2023-07-20T03:25:55;100111.28;;;16.19;71.39
19005;BME280;9635;52.078;8.648;2023-07-20T03:30:58;100107.19;;;16.15;70.65
19005;BME280;9635;52.078;8.648;2023-07-20T03:36:06;100109.41;;;16.20;69.92
19005;BME280;9635;52.078;8.648;2023-07-20T03:41:09;100116.88;;;16.18;69.71
19005;BME280;9635;52.078;8.648;2023-07-20T03:46:13;100118.91;;;16.07;71.10
19005;BME280;9635;52.078;8.648;2023-07-20T03:51:17;100131.50;;;15.14;78.85
19005;BME280;9635;52.078;8.648;2023-07-20T03:56:20;100135.25;;;14.15;83.92
19005;BME280;9635;52.078;8.648;2023-07-20T04:01:23;100144.00;;;14.27;87.33
19005;BME280;9635;52.078;8.648;2023-07-20T04:06:28;100144.19;;;14.43;87.41
19005;BME280;9635;52.078;8.648;2023-07-20T04:11:30;100149.19;;;14.38;87.62
19005;BME280;9635;52.078;8.648;2023-07-20T04:16:33;100155.28;;;14.22;87.98
19005;BME280;9635;52.078;8.648;2023-07-20T04:21:40;100159.13;;;14.20;88.43
19005;BME280;9635;52.078;8.648;2023-07-20T04:26:44;100162.13;;;14.16;88.74
19005;BME280;9635;52.078;8.648;2023-07-20T04:31:47;100162.63;;;14.30;88.89
19005;BME280;9635;52.078;8.648;2023-07-20T04:36:51;100165.31;;;14.30;89.20
19005;BME280;9635;52.078;8.648;2023-07-20T04:41:56;100176.78;;;14.14;88.94
19005;BME280;9635;52.078;8.648;2023-07-20T04:46:59;100171.34;;;14.24;89.39
19005;BME280;9635;52.078;8.648;2023-07-20T04:52:06;100180.19;;;14.34;89.64
19005;BME280;9635;52.078;8.648;2023-07-20T04:57:11;100183.59;;;14.36;90.04
19005;BME280;9635;52.078;8.648;2023-07-20T05:02:19;100178.91;;;14.38;88.60
19005;BME280;9635;52.078;8.648;2023-07-20T05:07:23;100180.94;;;14.54;90.10
19005;BME280;9635;52.078;8.648;2023-07-20T05:12:26;100173.66;;;14.72;90.49
19005;BME280;9635;52.078;8.648;2023-07-20T05:17:29;100182.06;;;14.33;88.24
19005;BME280;9635;52.078;8.648;2023-07-20T05:22:34;100190.97;;;14.44;87.97
19005;BME280;9635;52.078;8.648;2023-07-20T05:27:37;100195.53;;;14.61;88.34
19005;BME280;9635;52.078;8.648;2023-07-20T05:32:40;100189.63;;;14.83;88.56
19005;BME280;9635;52.078;8.648;2023-07-20T05:37:45;100193.63;;;14.97;89.20
19005;BME280;9635;52.078;8.648;2023-07-20T05:42:48;100205.00;;;14.83;86.97
19005;BME280;9635;52.078;8.648;2023-07-20T05:47:53;100211.88;;;14.77;87.93
19005;BME280;9635;52.078;8.648;2023-07-20T05:52:58;100209.31;;;14.94;87.85
19005;BME280;9635;52.078;8.648;2023-07-20T05:58:01;100212.91;;;15.20;87.17
19005;BME280;9635;52.078;8.648;2023-07-20T06:03:05;100224.41;;;14.60;84.58
19005;BME280;9635;52.078;8.648;2023-07-20T06:08:10;100222.38;;;14.80;84.00
19005;BME280;9635;52.078;8.648;2023-07-20T06:13:13;100217.88;;;15.07;84.02
19005;BME280;9635;52.078;8.648;2023-07-20T06:18:16;100226.00;;;15.07;83.95
19005;BME280;9635;52.078;8.648;2023-07-20T06:23:20;100232.16;;;15.17;84.63
19005;BME280;9635;52.078;8.648;2023-07-20T06:28:23;100239.78;;;15.22;85.11
19005;BME280;9635;52.078;8.648;2023-07-20T06:33:26;100238.28;;;15.72;85.08
19005;BME280;9635;52.078;8.648;2023-07-20T06:38:30;100242.06;;;16.21;83.20
19005;BME280;9635;52.078;8.648;2023-07-20T06:43:33;100245.69;;;16.04;82.55
19005;BME280;9635;52.078;8.648;2023-07-20T06:48:39;100249.59;;;16.09;81.38
19005;BME280;9635;52.078;8.648;2023-07-20T06:53:46;100249.56;;;16.01;80.03
19005;BME280;9635;52.078;8.648;2023-07-20T06:58:49;100253.78;;;15.35;77.20
19005;BME280;9635;52.078;8.648;2023-07-20T07:03:53;100260.81;;;15.72;80.71
19005;BME280;9635;52.078;8.648;2023-07-20T07:08:58;100257.44;;;16.21;76.68
19005;BME280;9635;52.078;8.648;2023-07-20T07:14:01;100266.41;;;16.13;78.93
19005;BME280;9635;52.078;8.648;2023-07-20T07:19:04;100270.66;;;15.81;78.43
19005;BME280;9635;52.078;8.648;2023-07-20T07:24:08;100272.50;;;15.29;73.60
19005;BME280;9635;52.078;8.648;2023-07-20T07:29:11;100268.59;;;15.75;75.11
19005;BME280;9635;52.078;8.648;2023-07-20T07:34:14;100266.19;;;16.41;72.83
19005;BME280;9635;52.078;8.648;2023-07-20T07:39:18;100275.47;;;17.21;73.29
19005;BME280;9635;52.078;8.648;2023-07-20T07:44:26;100270.09;;;17.85;67.85
19005;BME280;9635;52.078;8.648;2023-07-20T07:49:29;100286.13;;;17.07;63.49
19005;BME280;9635;52.078;8.648;2023-07-20T07:54:34;100280.44;;;18.69;59.44
19005;BME280;9635;52.078;8.648;2023-07-20T07:59:37;100284.69;;;18.94;59.82
19005;BME280;9635;52.078;8.648;2023-07-20T08:04:40;100291.16;;;19.16;57.88
19005;BME280;9635;52.078;8.648;2023-07-20T08:09:44;100296.78;;;20.35;59.75
19005;BME280;9635;52.078;8.648;2023-07-20T08:14:47;100291.47;;;20.48;58.60
19005;BME280;9635;52.078;8.648;2023-07-20T08:19:50;100297.94;;;19.20;53.81
19005;BME280;9635;52.078;8.648;2023-07-20T08:24:54;100310.75;;;19.35;56.63
19005;BME280;9635;52.078;8.648;2023-07-20T08:29:57;100302.88;;;18.71;55.31
19005;BME280;9635;52.078;8.648;2023-07-20T08:35:01;100305.69;;;19.99;51.51
19005;BME280;9635;52.078;8.648;2023-07-20T08:40:06;100308.16;;;20.75;48.80
19005;BME280;9635;52.078;8.648;2023-07-20T08:45:12;100314.91;;;21.65;47.95
19005;BME280;9635;52.078;8.648;2023-07-20T08:50:16;100306.00;;;21.56;45.46
19005;BME280;9635;52.078;8.648;2023-07-20T08:55:20;100312.84;;;20.45;45.89
19005;BME280;9635;52.078;8.648;2023-07-20T09:00:24;100313.09;;;19.38;45.87
19005;BME280;9635;52.078;8.648;2023-07-20T09:05:28;100312.13;;;20.72;46.94
19005;BME280;9635;52.078;8.648;2023-07-20T09:10:36;100303.97;;;21.37;44.63
19005;BME280;9635;52.078;8.648;2023-07-20T09:15:39;100302.41;;;22.47;43.57
19005;BME280;9635;52.078;8.648;2023-07-20T09:20:42;100302.31;;;22.88;43.11
19005;BME280;9635;52.078;8.648;2023-07-20T09:25:47;100295.84;;;23.49;40.77
19005;BME280;9635;52.078;8.648;2023-07-20T09:30:54;100305.75;;;23.50;42.38
19005;BME280;9635;52.078;8.648;2023-07-20T09:36:02;100313.00;;;21.65;42.04
19005;BME280;9635;52.078;8.648;2023-07-20T09:41:26;100319.03;;;20.53;45.89
19005;BME280;9635;52.078;8.648;2023-07-20T09:46:41;100323.69;;;21.11;44.94
19005;BME280;9635;52.078;8.648;2023-07-20T09:51:47;100311.03;;;22.16;40.17
19005;BME280;9635;52.078;8.648;2023-07-20T09:56:52;100316.00;;;21.99;41.50
19005;BME280;9635;52.078;8.648;2023-07-20T10:01:57;100310.41;;;22.14;39.28
19005;BME280;9635;52.078;8.648;2023-07-20T10:07:04;100306.31;;;21.40;42.16
19005;BME280;9635;52.078;8.648;2023-07-20T10:12:10;100298.56;;;23.69;39.05
19005;BME280;9635;52.078;8.648;2023-07-20T10:17:18;100302.91;;;24.23;38.14
19005;BME280;9635;52.078;8.648;2023-07-20T10:22:25;100307.22;;;23.19;38.16
19005;BME280;9635;52.078;8.648;2023-07-20T10:27:30;100303.94;;;22.76;41.11
19005;BME280;9635;52.078;8.648;2023-07-20T10:32:33;100307.59;;;22.42;38.50
19005;BME280;9635;52.078;8.648;2023-07-20T10:37:46;100297.53;;;22.49;39.20
19005;BME280;9635;52.078;8.648;2023-07-20T10:42:51;100291.13;;;22.28;38.11
19005;BME280;9635;52.078;8.648;2023-07-20T10:47:58;100286.38;;;23.18;38.98
19005;BME280;9635;52.078;8.648;2023-07-20T10:53:05;100279.19;;;25.44;35.18
19005;BME280;9635;52.078;8.648;2023-07-20T10:58:14;100287.72;;;25.11;33.29
19005;BME280;9635;52.078;8.648;2023-07-20T11:03:26;100291.81;;;23.72;35.64
19005;BME280;9635;52.078;8.648;2023-07-20T11:08:39;100290.13;;;23.64;35.91
19005;BME280;9635;52.078;8.648;2023-07-20T11:13:55;100280.59;;;24.06;35.41
19005;BME280;9635;52.078;8.648;2023-07-20T11:18:59;100288.88;;;23.60;34.35
19005;BME280;9635;52.078;8.648;2023-07-20T11:24:03;100279.56;;;22.88;36.48
19005;BME280;9635;52.078;8.648;2023-07-20T11:29:08;100276.56;;;22.63;37.24
19005;BME280;9635;52.078;8.648;2023-07-20T11:34:26;100273.91;;;23.89;36.38
19005;BME280;9635;52.078;8.648;2023-07-20T11:39:29;100265.72;;;25.11;34.89
19005;BME280;9635;52.078;8.648;2023-07-20T11:44:34;100253.25;;;23.47;35.63
19005;BME280;9635;52.078;8.648;2023-07-20T11:49:38;100259.53;;;22.74;35.65
19005;BME280;9635;52.078;8.648;2023-07-20T11:54:41;100249.22;;;22.83;36.01
19005;BME280;9635;52.078;8.648;2023-07-20T11:59:54;100248.63;;;23.47;34.74
19005;BME280;9635;52.078;8.648;2023-07-20T12:04:59;100255.09;;;22.18;37.03
19005;BME280;9635;52.078;8.648;2023-07-20T12:10:06;100246.06;;;22.79;36.97
19005;BME280;9635;52.078;8.648;2023-07-20T12:15:15;100243.38;;;23.19;35.64
19005;BME280;9635;52.078;8.648;2023-07-20T12:20:26;100253.78;;;21.73;36.68
19005;BME280;9635;52.078;8.648;2023-07-20T12:25:39;100237.66;;;23.47;36.06
19005;BME280;9635;52.078;8.648;2023-07-20T12:30:45;100244.19;;;23.33;35.64
19005;BME280;9635;52.078;8.648;2023-07-20T12:35:48;100245.22;;;21.48;39.15
19005;BME280;9635;52.078;8.648;2023-07-20T12:40:53;100248.53;;;21.15;39.01
19005;BME280;9635;52.078;8.648;2023-07-20T12:45:58;100237.78;;;22.59;38.05
19005;BME280;9635;52.078;8.648;2023-07-20T12:51:01;100225.59;;;22.82;37.89
19005;BME280;9635;52.078;8.648;2023-07-20T12:56:05;100226.28;;;22.90;37.02
19005;BME280;9635;52.078;8.648;2023-07-20T13:01:12;100230.44;;;22.73;38.63
19005;BME280;9635;52.078;8.648;2023-07-20T13:06:15;100224.72;;;24.39;34.78
19005;BME280;9635;52.078;8.648;2023-07-20T13:11:21;100215.00;;;25.75;32.33
19005;BME280;9635;52.078;8.648;2023-07-20T13:16:25;100219.91;;;23.70;34.10
19005;BME280;9635;52.078;8.648;2023-07-20T13:21:29;100213.97;;;22.46;36.54
19005;BME280;9635;52.078;8.648;2023-07-20T13:26:32;100216.75;;;22.66;36.61
19005;BME280;9635;52.078;8.648;2023-07-20T13:31:37;100207.84;;;24.42;34.56
19005;BME280;9635;52.078;8.648;2023-07-20T13:36:42;100208.19;;;24.84;37.06
19005;BME280;9635;52.078;8.648;2023-07-20T13:41:45;100200.84;;;26.57;32.43
19005;BME280;9635;52.078;8.648;2023-07-20T13:46:50;100197.91;;;26.70;31.89
19005;BME280;9635;52.078;8.648;2023-07-20T13:52:13;100199.00;;;25.47;31.96
19005;BME280;9635;52.078;8.648;2023-07-20T13:57:19;100201.56;;;25.85;33.79
19005;BME280;9635;52.078;8.648;2023-07-20T14:02:24;100193.81;;;27.27;33.61
19005;BME280;9635;52.078;8.648;2023-07-20T14:07:29;100199.22;;;27.45;31.66
19005;BME280;9635;52.078;8.648;2023-07-20T14:12:32;100205.97;;;26.05;33.74
19005;BME280;9635;52.078;8.648;2023-07-20T14:17:37;100201.22;;;24.82;35.98
19005;BME280;9635;52.078;8.648;2023-07-20T14:22:40;100203.91;;;23.47;37.38
19005;BME280;9635;52.078;8.648;2023-07-20T14:27:44;100199.50;;;22.86;39.16
19005;BME280;9635;52.078;8.648;2023-07-20T14:32:48;100200.34;;;22.86;38.67
19005;BME280;9635;52.078;8.648;2023-07-20T14:37:51;100199.31;;;23.07;38.42
19005;BME280;9635;52.078;8.648;2023-07-20T14:42:54;100203.50;;;23.36;37.73
19005;BME280;9635;52.078;8.648;2023-07-20T14:47:59;100219.53;;;22.18;39.52
19005;BME280;9635;52.078;8.648;2023-07-20T14:53:02;100213.50;;;22.36;40.44
19005;BME280;9635;52.078;8.648;2023-07-20T14:58:07;100205.66;;;23.21;40.20
19005;BME280;9635;52.078;8.648;2023-07-20T15:03:11;100206.94;;;25.55;37.51
19005;BME280;9635;52.078;8.648;2023-07-20T15:08:15;100191.56;;;27.24;35.41
19005;BME280;9635;52.078;8.648;2023-07-20T15:13:17;100193.00;;;26.12;35.40
19005;BME280;9635;52.078;8.648;2023-07-20T15:18:22;100191.78;;;27.34;33.64
19005;BME280;9635;52.078;8.648;2023-07-20T15:23:42;100185.63;;;26.55;33.76
19005;BME280;9635;52.078;8.648;2023-07-20T15:28:45;100180.59;;;25.48;35.89
19005;BME280;9635;52.078;8.648;2023-07-20T15:33:49;100183.47;;;26.99;33.70
19005;BME280;9635;52.078;8.648;2023-07-20T15:38:54;100184.59;;;26.07;35.05
19005;BME280;9635;52.078;8.648;2023-07-20T15:43:56;100183.16;;;24.99;35.22
19005;BME280;9635;52.078;8.648;2023-07-20T15:49:01;100170.69;;;25.83;34.45
19005;BME280;9635;52.078;8.648;2023-07-20T15:54:05;100176.66;;;24.30;35.23
19005;BME280;9635;52.078;8.648;2023-07-20T15:59:10;100180.75;;;25.09;36.02
19005;BME280;9635;52.078;8.648;2023-07-20T16:04:14;100155.06;;;26.14;35.19
19005;BME280;9635;52.078;8.648;2023-07-20T16:09:17;100167.50;;;25.00;35.81
19005;BME280;9635;52.078;8.648;2023-07-20T16:14:20;100165.47;;;23.80;36.57
19005;BME280;9635;52.078;8.648;2023-07-20T16:19:24;100149.13;;;25.44;35.73
19005;BME280;9635;52.078;8.648;2023-07-20T16:24:27;100152.91;;;26.35;34.68
19005;BME280;9635;52.078;8.648;2023-07-20T16:29:30;100148.63;;;26.20;34.29
19005;BME280;9635;52.078;8.648;2023-07-20T16:34:35;100141.34;;;27.10;34.00
19005;BME280;9635;52.078;8.648;2023-07-20T16:39:40;100136.31;;;27.82;32.41
19005;BME280;9635;52.078;8.648;2023-07-20T16:44:49;100128.84;;;27.54;32.07
19005;BME280;9635;52.078;8.648;2023-07-20T16:49:53;100126.69;;;28.88;30.45
19005;BME280;9635;52.078;8.648;2023-07-20T16:54:56;100112.00;;;31.91;25.89
19005;BME280;9635;52.078;8.648;2023-07-20T16:59:59;100117.13;;;33.27;24.14
19005;BME280;9635;52.078;8.648;2023-07-20T17:05:04;100119.03;;;29.90;26.81
19005;BME280;9635;52.078;8.648;2023-07-20T17:10:11;100123.56;;;27.17;29.80
19005;BME280;9635;52.078;8.648;2023-07-20T17:15:14;100126.88;;;24.20;33.66
19005;BME280;9635;52.078;8.648;2023-07-20T17:20:19;100121.75;;;23.00;36.54
19005;BME280;9635;52.078;8.648;2023-07-20T17:25:25;100121.78;;;22.53;37.19
19005;BME280;9635;52.078;8.648;2023-07-20T17:30:32;100114.97;;;22.29;36.81
19005;BME280;9635;52.078;8.648;2023-07-20T17:35:37;100106.19;;;23.72;36.38
19005;BME280;9635;52.078;8.648;2023-07-20T17:40:40;100098.63;;;27.36;32.07
19005;BME280;9635;52.078;8.648;2023-07-20T17:45:47;100093.09;;;30.23;29.06
19005;BME280;9635;52.078;8.648;2023-07-20T17:50:53;100085.94;;;33.25;25.85
19005;BME280;9635;52.078;8.648;2023-07-20T17:55:56;100087.78;;;33.60;24.90
19005;BME280;9635;52.078;8.648;2023-07-20T18:01:00;100090.25;;;29.91;27.09
19005;BME280;9635;52.078;8.648;2023-07-20T18:06:06;100092.91;;;25.95;31.45
19005;BME280;9635;52.078;8.648;2023-07-20T18:11:09;100093.13;;;23.74;34.95
19005;BME280;9635;52.078;8.648;2023-07-20T18:16:12;100084.50;;;23.12;36.52
19005;BME280;9635;52.078;8.648;2023-07-20T18:21:16;100083.25;;;22.62;37.28
19005;BME280;9635;52.078;8.648;2023-07-20T18:26:19;100083.41;;;22.14;37.19
19005;BME280;9635;52.078;8.648;2023-07-20T18:31:22;100089.16;;;21.77;39.22
19005;BME280;9635;52.078;8.648;2023-07-20T18:36:27;100077.34;;;21.70;39.47
19005;BME280;9635;52.078;8.648;2023-07-20T18:41:30;100079.03;;;21.64;39.50
19005;BME280;9635;52.078;8.648;2023-07-20T18:46:33;100079.31;;;21.41;40.84
19005;BME280;9635;52.078;8.648;2023-07-20T18:51:37;100078.34;;;21.14;40.48
19005;BME280;9635;52.078;8.648;2023-07-20T18:56:40;100073.28;;;20.83;41.49
19005;BME280;9635;52.078;8.648;2023-07-20T19:01:43;100076.19;;;20.53;42.12
19005;BME280;9635;52.078;8.648;2023-07-20T19:06:48;100079.91;;;20.24;43.15
19005;BME280;9635;52.078;8.648;2023-07-20T19:11:51;100081.97;;;20.01;43.42
19005;BME280;9635;52.078;8.648;2023-07-20T19:16:56;100085.97;;;19.83;44.40
19005;BME280;9635;52.078;8.648;2023-07-20T19:22:00;100090.03;;;19.73;44.40
19005;BME280;9635;52.078;8.648;2023-07-20T19:27:03;100085.16;;;19.68;43.69
19005;BME280;9635;52.078;8.648;2023-07-20T19:32:06;100080.56;;;19.54;43.88
19005;BME280;9635;52.078;8.648;2023-07-20T19:37:11;100094.38;;;19.37;44.76
19005;BME280;9635;52.078;8.648;2023-07-20T19:42:14;100089.78;;;19.38;45.71
19005;BME280;9635;52.078;8.648;2023-07-20T19:47:17;100094.94;;;19.33;45.73
19005;BME280;9635;52.078;8.648;2023-07-20T19:52:21;100101.44;;;19.32;45.38
19005;BME280;9635;52.078;8.648;2023-07-20T19:57:24;100106.13;;;19.23;45.30
19005;BME280;9635;52.078;8.648;2023-07-20T20:02:30;100112.78;;;19.20;45.71
19005;BME280;9635;52.078;8.648;2023-07-20T20:07:38;100114.38;;;19.00;46.34
19005;BME280;9635;52.078;8.648;2023-07-20T20:12:40;100119.97;;;18.84;46.32
19005;BME280;9635;52.078;8.648;2023-07-20T20:17:43;100112.84;;;18.83;47.19
19005;BME280;9635;52.078;8.648;2023-07-20T20:22:48;100115.53;;;18.68;47.49
19005;BME280;9635;52.078;8.648;2023-07-20T20:27:51;100105.31;;;18.47;47.60
19005;BME280;9635;52.078;8.648;2023-07-20T20:32:54;100109.34;;;18.51;47.13
19005;BME280;9635;52.078;8.648;2023-07-20T20:37:58;100108.75;;;18.64;47.90
19005;BME280;9635;52.078;8.648;2023-07-20T20:43:01;100099.19;;;18.68;47.95
19005;BME280;9635;52.078;8.648;2023-07-20T20:48:07;100108.91;;;18.62;48.38
19005;BME280;9635;52.078;8.648;2023-07-20T20:53:12;100102.09;;;18.66;48.32
19005;BME280;9635;52.078;8.648;2023-07-20T20:58:15;100103.75;;;18.67;48.68
19005;BME280;9635;52.078;8.648;2023-07-20T21:03:17;100105.72;;;18.58;49.21
19005;BME280;9635;52.078;8.648;2023-07-20T21:08:22;100104.28;;;18.48;49.94
19005;BME280;9635;52.078;8.648;2023-07-20T21:13:25;100094.19;;;18.33;50.68
19005;BME280;9635;52.078;8.648;2023-07-20T21:18:28;100097.75;;;18.34;50.93
19005;BME280;9635;52.078;8.648;2023-07-20T21:23:32;100099.28;;;18.36;50.55
19005;BME280;9635;52.078;8.648;2023-07-20T21:28:35;100094.38;;;18.32;50.65
19005;BME280;9635;52.078;8.648;2023-07-20T21:33:38;100086.72;;;18.35;50.53
19005;BME280;9635;52.078;8.648;2023-07-20T21:38:43;100080.06;;;18.38;50.40
19005;BME280;9635;52.078;8.648;2023-07-20T21:43:46;100080.16;;;18.45;50.65
19005;BME280;9635;52.078;8.648;2023-07-20T21:48:49;100084.16;;;18.34;50.52
19005;BME280;9635;52.078;8.648;2023-07-20T21:53:53;100088.84;;;18.25;50.23
19005;BME280;9635;52.078;8.648;2023-07-20T21:58:56;100081.78;;;18.16;50.39
19005;BME280;9635;52.078;8.648;2023-07-20T22:03:58;100082.22;;;17.97;50.81
19005;BME280;9635;52.078;8.648;2023-07-20T22:09:03;100088.34;;;17.99;51.40
19005;BME280;9635;52.078;8.648;2023-07-20T22:14:07;100078.22;;;17.84;51.72
19005;BME280;9635;52.078;8.648;2023-07-20T22:19:11;100074.66;;;17.84;51.91
19005;BME280;9635;52.078;8.648;2023-07-20T22:24:15;100054.38;;;17.95;52.26
19005;BME280;9635;52.078;8.648;2023-07-20T22:29:18;100057.63;;;17.90;52.55
19005;BME280;9635;52.078;8.648;2023-07-20T22:34:21;100058.03;;;17.79;53.10
19005;BME280;9635;52.078;8.648;2023-07-20T22:39:25;100059.59;;;17.73;53.12
19005;BME280;9635;52.078;8.648;2023-07-20T22:44:29;100054.84;;;17.75;53.22
19005;BME280;9635;52.078;8.648;2023-07-20T22:49:31;100044.56;;;17.62;53.73
19005;BME280;9635;52.078;8.648;2023-07-20T22:54:36;100043.75;;;17.54;54.17
19005;BME280;9635;52.078;8.648;2023-07-20T22:59:39;100045.81;;;17.52;54.23
19005;BME280;9635;52.078;8.648;2023-07-20T23:04:42;100043.28;;;17.50;54.01
19005;BME280;9635;52.078;8.648;2023-07-20T23:09:47;100044.97;;;17.51;54.45
19005;BME280;9635;52.078;8.648;2023-07-20T23:14:51;100039.97;;;17.63;54.62
19005;BME280;9635;52.078;8.648;2023-07-20T23:19:54;100035.19;;;17.65;54.17
19005;BME280;9635;52.078;8.648;2023-07-20T23:24:59;100025.44;;;17.56;54.41
19005;BME280;9635;52.078;8.648;2023-07-20T23:30:02;100030.72;;;17.49;54.36
19005;BME280;9635;52.078;8.648;2023-07-20T23:35:07;100031.53;;;17.50;54.41
19005;BME280;9635;52.078;8.648;2023-07-20T23:40:12;100038.22;;;17.47;55.83
19005;BME280;9635;52.078;8.648;2023-07-20T23:45:16;100034.06;;;17.28;56.13
19005;BME280;9635;52.078;8.648;2023-07-20T23:50:19;100028.34;;;17.07;56.24
19005;BME280;9635;52.078;8.648;2023-07-20T23:55:24;100028.16;;;17.16;55.70
